sensor_id;sensor_type;location;lat;lon;timestamp;noise_LAeq;noise_LA_min;noise_LA_max;noise_LA01;noise_LA95
51665;Laerm;37751;52.408;12.536;2023-12-20T00:00:49;47.67;34.45;65.51;;
51665;Laerm;37751;52.408;12.536;2023-12-20T00:03:23;52.92;35.08;69.12;;
51665;Laerm;37751;52.408;12.536;2023-12-20T00:06:20;53.61;32.76;71.20;;
51665;Laerm;37751;52.408;12.536;2023-12-20T00:09:01;54.17;34.93;68.52;;
51665;Laerm;37751;52.408;12.536;2023-12-20T00:11:41;49.75;32.43;69.07;;
51665;Laerm;37751;52.408;12.536;2023-12-20T00:14:35;48.74;34.57;63.70;;
51665;Laerm;37751;52.408;12.536;2023-12-20T00:17:34;50.96;35.77;69.92;;
51665;Laerm;37751;52.408;12.536;2023-12-20T00:20:17;59.10;42.04;71.01;;
51665;Laerm;37751;52.408;12.536;2023-12-20T00:23:11;51.79;39.05;65.56;;
51665;Laerm;37751;52.408;12.536;2023-12-20T00:26:05;47.94;38.14;62.70;;
51665;Laerm;37751;52.408;12.536;2023-12-20T00:28:37;55.67;39.96;75.63;;
51665;Laerm;37751;52.408;12.536;2023-12-20T00:31:08;55.66;35.65;70.50;;
51665;Laerm;37751;52.408;12.536;2023-12-20T00:33:43;39.82;33.87;51.16;;
51665;Laerm;37751;52.408;12.536;2023-12-20T00:36:18;45.11;34.26;58.02;;
51665;Laerm;37751;52.408;12.536;2023-12-20T00:38:52;52.10;33.72;67.82;;
51665;Laerm;37751;52.408;12.536;2023-12-20T00:41:23;48.72;33.37;66.78;;
51665;Laerm;37751;52.408;12.536;2023-12-20T00:43:57;50.56;33.74;69.72;;
51665;Laerm;37751;52.408;12.536;2023-12-20T00:46:28;49.60;37.89;64.91;;
51665;Laerm;37751;52.408;12.536;2023-12-20T00:49:20;46.46;33.58;59.37;;
51665;Laerm;37751;52.408;12.536;2023-12-20T00:51:57;48.65;32.72;68.09;;
51665;Laerm;37751;52.408;12.536;2023-12-20T00:54:33;53.10;32.61;71.06;;
51665;Laerm;37751;52.408;12.536;2023-12-20T00:57:05;55.45;33.38;69.65;;
51665;Laerm;37751;52.408;12.536;2023-12-20T00:59:36;46.61;31.88;64.58;;
51665;Laerm;37751;52.408;12.536;2023-12-20T01:02:08;39.93;31.37;50.57;;
51665;Laerm;37751;52.408;12.536;2023-12-20T01:04:40;35.56;30.97;48.72;;
51665;Laerm;37751;52.408;12.536;2023-12-20T01:07:11;47.36;32.34;65.95;;
51665;Laerm;37751;52.408;12.536;2023-12-20T01:09:45;52.42;32.81;67.29;;
51665;Laerm;37751;52.408;12.536;2023-12-20T01:12:19;53.53;31.27;70.22;;
51665;Laerm;37751;52.408;12.536;2023-12-20T01:14:51;52.68;31.82;70.27;;
51665;Laerm;37751;52.408;12.536;2023-12-20T01:17:22;55.19;32.83;71.86;;
51665;Laerm;37751;52.408;12.536;2023-12-20T01:20:16;54.62;35.68;68.10;;
51665;Laerm;37751;52.408;12.536;2023-12-20T01:23:13;48.52;32.58;67.71;;
51665;Laerm;37751;52.408;12.536;2023-12-20T01:26:12;50.68;33.92;68.29;;
51665;Laerm;37751;52.408;12.536;2023-12-20T01:29:21;54.20;38.75;69.83;;
51665;Laerm;37751;52.408;12.536;2023-12-20T01:32:26;53.28;35.77;71.72;;
51665;Laerm;37751;52.408;12.536;2023-12-20T01:35:38;53.71;36.90;71.95;;
51665;Laerm;37751;52.408;12.536;2023-12-20T01:38:34;51.43;36.75;67.07;;
51665;Laerm;37751;52.408;12.536;2023-12-20T01:41:35;44.10;37.15;55.79;;
51665;Laerm;37751;52.408;12.536;2023-12-20T01:44:38;48.74;37.40;71.36;;
51665;Laerm;37751;52.408;12.536;2023-12-20T01:47:49;52.18;36.12;67.35;;
51665;Laerm;37751;52.408;12.536;2023-12-20T01:50:21;54.22;36.71;72.73;;
51665;Laerm;37751;52.408;12.536;2023-12-20T01:53:01;50.17;34.22;69.24;;
51665;Laerm;37751;52.408;12.536;2023-12-20T01:55:41;52.93;32.19;68.58;;
51665;Laerm;37751;52.408;12.536;2023-12-20T01:58:23;47.80;31.77;65.65;;
51665;Laerm;37751;52.408;12.536;2023-12-20T02:00:58;50.94;32.09;72.75;;
51665;Laerm;37751;52.408;12.536;2023-12-20T02:03:50;52.04;32.13;68.40;;
51665;Laerm;37751;52.408;12.536;2023-12-20T02:06:34;33.42;30.44;47.03;;
51665;Laerm;37751;52.408;12.536;2023-12-20T02:09:08;45.98;30.41;67.15;;
51665;Laerm;37751;52.408;12.536;2023-12-20T02:11:39;50.05;31.31;64.41;;
51665;Laerm;37751;52.408;12.536;2023-12-20T02:14:16;51.96;30.70;68.73;;
51665;Laerm;37751;52.408;12.536;2023-12-20T02:16:50;50.54;29.86;69.66;;
51665;Laerm;37751;52.408;12.536;2023-12-20T02:19:43;56.07;35.80;70.62;;
51665;Laerm;37751;52.408;12.536;2023-12-20T02:22:38;53.02;38.58;67.87;;
51665;Laerm;37751;52.408;12.536;2023-12-20T02:25:14;55.15;29.97;73.83;;
51665;Laerm;37751;52.408;12.536;2023-12-20T02:27:50;47.25;29.52;67.04;;
51665;Laerm;37751;52.408;12.536;2023-12-20T02:30:41;52.92;34.54;67.12;;
51665;Laerm;37751;52.408;12.536;2023-12-20T02:33:14;50.42;34.00;67.73;;
51665;Laerm;37751;52.408;12.536;2023-12-20T02:35:46;53.51;31.66;65.94;;
51665;Laerm;37751;52.408;12.536;2023-12-20T02:38:31;46.49;31.01;59.67;;
51665;Laerm;37751;52.408;12.536;2023-12-20T02:41:05;50.71;29.91;65.67;;
51665;Laerm;37751;52.408;12.536;2023-12-20T02:43:50;49.65;29.84;64.03;;
51665;Laerm;37751;52.408;12.536;2023-12-20T02:46:23;53.61;36.73;68.48;;
51665;Laerm;37751;52.408;12.536;2023-12-20T02:48:57;47.53;31.50;58.49;;
51665;Laerm;37751;52.408;12.536;2023-12-20T02:51:48;53.64;30.38;67.59;;
51665;Laerm;37751;52.408;12.536;2023-12-20T02:54:25;55.12;30.50;72.58;;
51665;Laerm;37751;52.408;12.536;2023-12-20T02:57:04;54.23;33.20;70.65;;
51665;Laerm;37751;52.408;12.536;2023-12-20T02:59:39;50.97;36.91;67.48;;
51665;Laerm;37751;52.408;12.536;2023-12-20T03:02:21;49.31;32.99;64.00;;
51665;Laerm;37751;52.408;12.536;2023-12-20T03:04:55;51.10;36.16;64.81;;
51665;Laerm;37751;52.408;12.536;2023-12-20T03:07:45;51.83;34.23;63.25;;
51665;Laerm;37751;52.408;12.536;2023-12-20T03:11:00;57.97;37.80;73.43;;
51665;Laerm;37751;52.408;12.536;2023-12-20T03:13:51;50.71;33.79;65.86;;
51665;Laerm;37751;52.408;12.536;2023-12-20T03:16:47;58.94;34.39;73.20;;
51665;Laerm;37751;52.408;12.536;2023-12-20T03:19:23;56.22;36.90;67.82;;
51665;Laerm;37751;52.408;12.536;2023-12-20T03:22:18;56.67;35.68;73.33;;
51665;Laerm;37751;52.408;12.536;2023-12-20T03:25:30;53.13;33.21;69.20;;
51665;Laerm;37751;52.408;12.536;2023-12-20T03:28:19;53.30;34.82;67.99;;
51665;Laerm;37751;52.408;12.536;2023-12-20T03:30:57;56.34;40.33;70.83;;
51665;Laerm;37751;52.408;12.536;2023-12-20T03:33:53;55.68;35.32;68.18;;
51665;Laerm;37751;52.408;12.536;2023-12-20T03:36:27;53.53;38.31;70.24;;
51665;Laerm;37751;52.408;12.536;2023-12-20T03:39:22;59.05;45.70;73.34;;
51665;Laerm;37751;52.408;12.536;2023-12-20T03:41:56;54.63;38.17;68.57;;
51665;Laerm;37751;52.408;12.536;2023-12-20T03:45:11;54.60;34.71;68.68;;
51665;Laerm;37751;52.408;12.536;2023-12-20T03:47:53;57.52;43.97;68.98;;
51665;Laerm;37751;52.408;12.536;2023-12-20T03:50:40;55.66;42.67;65.21;;
51665;Laerm;37751;52.408;12.536;2023-12-20T03:53:52;57.87;43.61;70.83;;
51665;Laerm;37751;52.408;12.536;2023-12-20T03:56:54;57.20;42.46;72.16;;
51665;Laerm;37751;52.408;12.536;2023-12-20T03:59:49;54.54;42.01;67.07;;
51665;Laerm;37751;52.408;12.536;2023-12-20T04:02:45;57.24;38.65;70.53;;
51665;Laerm;37751;52.408;12.536;2023-12-20T04:05:32;56.90;42.24;67.47;;
51665;Laerm;37751;52.408;12.536;2023-12-20T04:08:07;56.64;42.99;68.15;;
51665;Laerm;37751;52.408;12.536;2023-12-20T04:10:59;58.08;47.09;78.17;;
51665;Laerm;37751;52.408;12.536;2023-12-20T04:13:50;57.51;44.99;69.96;;
51665;Laerm;37751;52.408;12.536;2023-12-20T04:17:02;58.08;45.75;70.75;;
51665;Laerm;37751;52.408;12.536;2023-12-20T04:19:37;58.93;43.69;71.96;;
51665;Laerm;37751;52.408;12.536;2023-12-20T04:22:24;61.03;46.91;76.15;;
51665;Laerm;37751;52.408;12.536;2023-12-20T04:25:16;57.93;41.31;67.22;;
51665;Laerm;37751;52.408;12.536;2023-12-20T04:27:51;57.21;44.07;68.08;;
51665;Laerm;37751;52.408;12.536;2023-12-20T04:30:30;58.49;48.12;67.20;;
51665;Laerm;37751;52.408;12.536;2023-12-20T04:33:04;61.50;48.57;69.02;;
51665;Laerm;37751;52.408;12.536;2023-12-20T04:36:11;59.32;44.41;68.82;;
51665;Laerm;37751;52.408;12.536;2023-12-20T04:38:45;58.51;43.34;70.04;;
51665;Laerm;37751;52.408;12.536;2023-12-20T04:41:39;59.93;47.14;69.51;;
51665;Laerm;37751;52.408;12.536;2023-12-20T04:44:41;58.40;48.34;67.88;;
51665;Laerm;37751;52.408;12.536;2023-12-20T04:47:35;61.14;46.22;75.45;;
51665;Laerm;37751;52.408;12.536;2023-12-20T04:50:20;59.62;46.47;69.28;;
51665;Laerm;37751;52.408;12.536;2023-12-20T04:53:28;60.96;45.81;68.28;;
51665;Laerm;37751;52.408;12.536;2023-12-20T04:56:40;60.42;45.87;71.70;;
51665;Laerm;37751;52.408;12.536;2023-12-20T04:59:51;59.38;44.23;69.23;;
51665;Laerm;37751;52.408;12.536;2023-12-20T05:02:46;58.18;44.43;69.69;;
51665;Laerm;37751;52.408;12.536;2023-12-20T05:05:59;59.80;44.98;67.77;;
51665;Laerm;37751;52.408;12.536;2023-12-20T05:08:58;60.84;48.06;68.97;;
51665;Laerm;37751;52.408;12.536;2023-12-20T05:11:49;59.94;48.28;69.78;;
51665;Laerm;37751;52.408;12.536;2023-12-20T05:15:01;62.14;47.67;74.83;;
51665;Laerm;37751;52.408;12.536;2023-12-20T05:17:35;61.17;47.53;68.14;;
51665;Laerm;37751;52.408;12.536;2023-12-20T05:20:32;60.74;48.57;70.92;;
51665;Laerm;37751;52.408;12.536;2023-12-20T05:23:46;61.44;47.86;73.36;;
51665;Laerm;37751;52.408;12.536;2023-12-20T05:27:00;61.68;47.32;71.99;;
51665;Laerm;37751;52.408;12.536;2023-12-20T05:29:48;60.56;48.60;69.60;;
51665;Laerm;37751;52.408;12.536;2023-12-20T05:33:01;60.64;47.93;70.75;;
51665;Laerm;37751;52.408;12.536;2023-12-20T05:35:45;61.59;44.94;69.72;;
51665;Laerm;37751;52.408;12.536;2023-12-20T05:38:17;60.67;50.83;67.79;;
51665;Laerm;37751;52.408;12.536;2023-12-20T05:40:48;61.01;52.51;70.74;;
51665;Laerm;37751;52.408;12.536;2023-12-20T05:43:39;63.24;53.70;73.76;;
51665;Laerm;37751;52.408;12.536;2023-12-20T05:46:16;60.61;47.13;70.47;;
51665;Laerm;37751;52.408;12.536;2023-12-20T05:49:11;62.95;51.33;73.09;;
51665;Laerm;37751;52.408;12.536;2023-12-20T05:52:14;60.10;49.46;70.69;;
51665;Laerm;37751;52.408;12.536;2023-12-20T05:55:03;61.99;52.25;69.82;;
51665;Laerm;37751;52.408;12.536;2023-12-20T05:58:09;60.46;48.70;69.17;;
51665;Laerm;37751;52.408;12.536;2023-12-20T06:01:07;59.47;50.56;68.36;;
51665;Laerm;37751;52.408;12.536;2023-12-20T06:04:19;60.54;49.51;69.82;;
51665;Laerm;37751;52.408;12.536;2023-12-20T06:07:04;61.90;54.92;69.21;;
51665;Laerm;37751;52.408;12.536;2023-12-20T06:09:39;61.05;49.82;67.77;;
51665;Laerm;37751;52.408;12.536;2023-12-20T06:12:11;61.27;50.32;72.26;;
51665;Laerm;37751;52.408;12.536;2023-12-20T06:14:48;62.04;51.49;69.29;;
51665;Laerm;37751;52.408;12.536;2023-12-20T06:17:45;60.51;49.50;67.17;;
51665;Laerm;37751;52.408;12.536;2023-12-20T06:20:18;61.24;51.28;70.07;;
51665;Laerm;37751;52.408;12.536;2023-12-20T06:23:03;61.87;49.51;69.85;;
51665;Laerm;37751;52.408;12.536;2023-12-20T06:25:38;62.48;52.38;74.35;;
51665;Laerm;37751;52.408;12.536;2023-12-20T06:28:11;60.59;49.43;69.14;;
51665;Laerm;37751;52.408;12.536;2023-12-20T06:31:06;62.17;50.73;77.61;;
51665;Laerm;37751;52.408;12.536;2023-12-20T06:34:04;61.60;47.36;71.17;;
51665;Laerm;37751;52.408;12.536;2023-12-20T06:36:46;60.17;48.98;68.76;;
51665;Laerm;37751;52.408;12.536;2023-12-20T06:39:31;61.65;53.54;71.78;;
51665;Laerm;37751;52.408;12.536;2023-12-20T06:42:04;61.10;54.93;70.17;;
51665;Laerm;37751;52.408;12.536;2023-12-20T06:44:35;60.50;50.57;74.51;;
51665;Laerm;37751;52.408;12.536;2023-12-20T06:47:29;62.23;52.14;69.58;;
51665;Laerm;37751;52.408;12.536;2023-12-20T06:50:09;63.93;52.92;79.04;;
51665;Laerm;37751;52.408;12.536;2023-12-20T06:53:04;61.48;53.05;74.27;;
51665;Laerm;37751;52.408;12.536;2023-12-20T06:55:35;61.27;50.14;67.57;;
51665;Laerm;37751;52.408;12.536;2023-12-20T06:58:47;60.44;49.05;67.57;;
51665;Laerm;37751;52.408;12.536;2023-12-20T07:02:00;62.50;50.67;72.47;;
51665;Laerm;37751;52.408;12.536;2023-12-20T07:04:51;60.20;49.36;68.19;;
51665;Laerm;37751;52.408;12.536;2023-12-20T07:07:29;61.16;52.69;68.36;;
51665;Laerm;37751;52.408;12.536;2023-12-20T07:10:00;60.82;51.04;70.29;;
51665;Laerm;37751;52.408;12.536;2023-12-20T07:12:32;62.47;50.09;72.84;;
51665;Laerm;37751;52.408;12.536;2023-12-20T07:15:21;60.21;53.06;68.78;;
51665;Laerm;37751;52.408;12.536;2023-12-20T07:18:26;64.05;52.43;79.34;;
51665;Laerm;37751;52.408;12.536;2023-12-20T07:21:00;61.75;53.17;70.47;;
51665;Laerm;37751;52.408;12.536;2023-12-20T07:23:35;60.74;52.08;66.55;;
51665;Laerm;37751;52.408;12.536;2023-12-20T07:26:26;65.42;52.64;77.80;;
51665;Laerm;37751;52.408;12.536;2023-12-20T07:29:02;59.78;50.77;66.52;;
51665;Laerm;37751;52.408;12.536;2023-12-20T07:32:09;67.54;49.34;84.15;;
51665;Laerm;37751;52.408;12.536;2023-12-20T07:34:40;61.31;52.13;68.16;;
51665;Laerm;37751;52.408;12.536;2023-12-20T07:37:24;62.29;51.61;72.74;;
51665;Laerm;37751;52.408;12.536;2023-12-20T07:40:10;62.27;51.17;70.69;;
51665;Laerm;37751;52.408;12.536;2023-12-20T07:43:02;62.42;51.67;79.79;;
51665;Laerm;37751;52.408;12.536;2023-12-20T07:46:06;60.75;50.29;78.64;;
51665;Laerm;37751;52.408;12.536;2023-12-20T07:49:08;62.11;49.63;69.63;;
51665;Laerm;37751;52.408;12.536;2023-12-20T07:52:03;61.18;54.20;74.72;;
51665;Laerm;37751;52.408;12.536;2023-12-20T07:54:36;59.03;50.30;66.72;;
51665;Laerm;37751;52.408;12.536;2023-12-20T07:57:10;62.66;52.39;72.64;;
51665;Laerm;37751;52.408;12.536;2023-12-20T07:59:42;67.40;58.86;74.39;;
51665;Laerm;37751;52.408;12.536;2023-12-20T08:02:25;65.76;54.81;75.70;;
51665;Laerm;37751;52.408;12.536;2023-12-20T08:05:30;71.04;50.39;91.75;;
51665;Laerm;37751;52.408;12.536;2023-12-20T08:08:22;62.03;52.76;75.04;;
51665;Laerm;37751;52.408;12.536;2023-12-20T08:11:25;60.97;51.73;68.33;;
51665;Laerm;37751;52.408;12.536;2023-12-20T08:14:22;69.29;51.66;91.10;;
51665;Laerm;37751;52.408;12.536;2023-12-20T08:16:56;60.56;51.66;69.63;;
51665;Laerm;37751;52.408;12.536;2023-12-20T08:19:31;72.48;51.53;91.25;;
51665;Laerm;37751;52.408;12.536;2023-12-20T08:22:23;77.18;55.12;93.27;;
51665;Laerm;37751;52.408;12.536;2023-12-20T08:25:28;63.96;53.04;85.53;;
51665;Laerm;37751;52.408;12.536;2023-12-20T08:28:40;60.69;51.46;68.54;;
51665;Laerm;37751;52.408;12.536;2023-12-20T08:31:45;61.25;50.84;69.34;;
51665;Laerm;37751;52.408;12.536;2023-12-20T08:34:32;61.80;49.52;71.66;;
51665;Laerm;37751;52.408;12.536;2023-12-20T08:37:44;61.52;51.76;70.76;;
51665;Laerm;37751;52.408;12.536;2023-12-20T08:40:37;62.28;52.46;72.60;;
51665;Laerm;37751;52.408;12.536;2023-12-20T08:43:50;62.79;53.67;72.43;;
51665;Laerm;37751;52.408;12.536;2023-12-20T08:47:06;60.37;51.85;67.45;;
51665;Laerm;37751;52.408;12.536;2023-12-20T08:50:08;62.03;52.22;71.15;;
51665;Laerm;37751;52.408;12.536;2023-12-20T08:52:53;64.11;56.79;78.07;;
51665;Laerm;37751;52.408;12.536;2023-12-20T08:55:35;61.73;51.97;71.56;;
51665;Laerm;37751;52.408;12.536;2023-12-20T08:58:38;61.32;52.78;70.95;;
51665;Laerm;37751;52.408;12.536;2023-12-20T09:01:51;61.86;51.92;71.70;;
51665;Laerm;37751;52.408;12.536;2023-12-20T09:05:00;60.81;51.63;69.35;;
51665;Laerm;37751;52.408;12.536;2023-12-20T09:08:14;60.68;50.47;70.13;;
51665;Laerm;37751;52.408;12.536;2023-12-20T09:11:16;61.59;51.71;73.30;;
51665;Laerm;37751;52.408;12.536;2023-12-20T09:14:11;61.88;50.34;70.38;;
51665;Laerm;37751;52.408;12.536;2023-12-20T09:16:57;60.09;51.19;68.56;;
51665;Laerm;37751;52.408;12.536;2023-12-20T09:20:13;61.84;50.06;77.38;;
51665;Laerm;37751;52.408;12.536;2023-12-20T09:23:18;62.70;50.93;71.40;;
51665;Laerm;37751;52.408;12.536;2023-12-20T09:26:05;61.36;55.05;68.67;;
51665;Laerm;37751;52.408;12.536;2023-12-20T09:28:58;62.82;54.02;70.55;;
51665;Laerm;37751;52.408;12.536;2023-12-20T09:32:12;62.10;53.04;70.85;;
51665;Laerm;37751;52.408;12.536;2023-12-20T09:35:27;62.55;50.25;77.21;;
51665;Laerm;37751;52.408;12.536;2023-12-20T09:38:21;61.14;51.33;68.99;;
51665;Laerm;37751;52.408;12.536;2023-12-20T09:41:39;61.31;52.12;69.49;;
51665;Laerm;37751;52.408;12.536;2023-12-20T09:44:45;60.54;51.27;68.73;;
51665;Laerm;37751;52.408;12.536;2023-12-20T09:47:58;60.87;50.57;69.17;;
51665;Laerm;37751;52.408;12.536;2023-12-20T09:50:42;61.18;51.79;72.72;;
51665;Laerm;37751;52.408;12.536;2023-12-20T09:54:04;60.65;50.08;67.68;;
51665;Laerm;37751;52.408;12.536;2023-12-20T09:57:10;60.93;51.93;68.79;;
51665;Laerm;37751;52.408;12.536;2023-12-20T10:00:10;61.39;50.64;69.30;;
51665;Laerm;37751;52.408;12.536;2023-12-20T10:02:56;63.62;50.84;77.28;;
51665;Laerm;37751;52.408;12.536;2023-12-20T10:06:11;67.29;53.09;86.20;;
51665;Laerm;37751;52.408;12.536;2023-12-20T10:08:48;60.90;49.28;70.81;;
51665;Laerm;37751;52.408;12.536;2023-12-20T10:11:23;60.85;50.31;69.32;;
51665;Laerm;37751;52.408;12.536;2023-12-20T10:14:39;61.01;51.11;71.37;;
51665;Laerm;37751;52.408;12.536;2023-12-20T10:17:36;62.52;51.86;74.42;;
51665;Laerm;37751;52.408;12.536;2023-12-20T10:20:12;61.17;52.12;67.38;;
51665;Laerm;37751;52.408;12.536;2023-12-20T10:23:01;62.16;52.32;78.82;;
51665;Laerm;37751;52.408;12.536;2023-12-20T10:26:19;62.42;51.71;72.59;;
51665;Laerm;37751;52.408;12.536;2023-12-20T10:28:56;60.96;50.67;73.54;;
51665;Laerm;37751;52.408;12.536;2023-12-20T10:31:39;61.49;49.55;74.82;;
51665;Laerm;37751;52.408;12.536;2023-12-20T10:34:41;60.50;49.25;69.73;;
51665;Laerm;37751;52.408;12.536;2023-12-20T10:37:30;60.90;52.55;71.85;;
51665;Laerm;37751;52.408;12.536;2023-12-20T10:40:28;61.24;49.98;68.90;;
51665;Laerm;37751;52.408;12.536;2023-12-20T10:43:41;62.06;51.94;74.79;;
51665;Laerm;37751;52.408;12.536;2023-12-20T10:46:13;58.60;48.33;65.05;;
51665;Laerm;37751;52.408;12.536;2023-12-20T10:49:28;69.12;51.16;88.14;;
51665;Laerm;37751;52.408;12.536;2023-12-20T10:52:25;61.48;53.43;67.64;;
51665;Laerm;37751;52.408;12.536;2023-12-20T10:55:18;61.35;48.12;74.35;;
51665;Laerm;37751;52.408;12.536;2023-12-20T10:58:35;60.64;48.66;69.08;;
51665;Laerm;37751;52.408;12.536;2023-12-20T11:01:45;59.09;51.92;70.70;;
51665;Laerm;37751;52.408;12.536;2023-12-20T11:04:44;60.46;52.07;69.80;;
51665;Laerm;37751;52.408;12.536;2023-12-20T11:08:09;59.77;50.98;69.53;;
51665;Laerm;37751;52.408;12.536;2023-12-20T11:10:59;61.79;53.48;69.85;;
51665;Laerm;37751;52.408;12.536;2023-12-20T11:13:59;67.17;53.51;81.55;;
51665;Laerm;37751;52.408;12.536;2023-12-20T11:16:46;61.76;49.39;74.15;;
51665;Laerm;37751;52.408;12.536;2023-12-20T11:19:30;60.99;50.14;69.72;;
51665;Laerm;37751;52.408;12.536;2023-12-20T11:22:25;61.48;51.19;71.43;;
51665;Laerm;37751;52.408;12.536;2023-12-20T11:25:18;60.51;52.46;70.12;;
51665;Laerm;37751;52.408;12.536;2023-12-20T11:28:22;60.48;51.21;71.20;;
51665;Laerm;37751;52.408;12.536;2023-12-20T11:31:43;61.06;52.06;72.48;;
51665;Laerm;37751;52.408;12.536;2023-12-20T11:34:19;61.09;51.92;70.15;;
51665;Laerm;37751;52.408;12.536;2023-12-20T11:36:59;60.79;51.73;70.88;;
51665;Laerm;37751;52.408;12.536;2023-12-20T11:39:31;60.59;53.72;72.66;;
51665;Laerm;37751;52.408;12.536;2023-12-20T11:42:08;62.18;52.15;72.28;;
51665;Laerm;37751;52.408;12.536;2023-12-20T11:44:43;61.43;50.48;74.95;;
51665;Laerm;37751;52.408;12.536;2023-12-20T11:47:49;61.10;50.53;74.91;;
51665;Laerm;37751;52.408;12.536;2023-12-20T11:50:25;60.49;51.77;71.28;;
51665;Laerm;37751;52.408;12.536;2023-12-20T11:53:18;59.85;49.00;68.12;;
51665;Laerm;37751;52.408;12.536;2023-12-20T11:56:30;61.79;52.10;74.30;;
51665;Laerm;37751;52.408;12.536;2023-12-20T11:59:36;60.14;52.37;68.49;;
51665;Laerm;37751;52.408;12.536;2023-12-20T12:02:16;72.06;53.41;92.57;;
51665;Laerm;37751;52.408;12.536;2023-12-20T12:05:06;64.03;53.16;81.76;;
51665;Laerm;37751;52.408;12.536;2023-12-20T12:08:09;61.88;54.03;78.38;;
51665;Laerm;37751;52.408;12.536;2023-12-20T12:10:47;72.80;52.80;91.74;;
51665;Laerm;37751;52.408;12.536;2023-12-20T12:13:26;61.39;53.74;69.74;;
51665;Laerm;37751;52.408;12.536;2023-12-20T12:16:37;61.34;52.79;72.84;;
51665;Laerm;37751;52.408;12.536;2023-12-20T12:19:32;61.86;52.69;70.59;;
51665;Laerm;37751;52.408;12.536;2023-12-20T12:22:58;66.04;50.67;80.45;;
51665;Laerm;37751;52.408;12.536;2023-12-20T12:25:53;64.65;52.16;75.27;;
51665;Laerm;37751;52.408;12.536;2023-12-20T12:28:57;63.99;52.30;82.75;;
51665;Laerm;37751;52.408;12.536;2023-12-20T12:31:52;64.84;55.02;81.20;;
51665;Laerm;37751;52.408;12.536;2023-12-20T12:35:08;62.40;54.89;71.25;;
51665;Laerm;37751;52.408;12.536;2023-12-20T12:38:03;64.26;53.21;74.98;;
51665;Laerm;37751;52.408;12.536;2023-12-20T12:41:15;63.61;55.46;77.38;;
51665;Laerm;37751;52.408;12.536;2023-12-20T12:43:46;63.91;53.30;74.33;;
51665;Laerm;37751;52.408;12.536;2023-12-20T12:46:41;63.97;53.99;73.23;;
51665;Laerm;37751;52.408;12.536;2023-12-20T12:49:35;65.59;55.69;74.56;;
51665;Laerm;37751;52.408;12.536;2023-12-20T12:52:11;65.22;56.89;71.24;;
51665;Laerm;37751;52.408;12.536;2023-12-20T12:55:25;65.09;54.51;72.56;;
51665;Laerm;37751;52.408;12.536;2023-12-20T12:58:10;66.53;58.38;75.04;;
51665;Laerm;37751;52.408;12.536;2023-12-20T13:01:22;65.71;55.43;76.46;;
51665;Laerm;37751;52.408;12.536;2023-12-20T13:04:17;66.15;56.31;74.65;;
51665;Laerm;37751;52.408;12.536;2023-12-20T13:07:11;69.15;62.31;75.49;;
51665;Laerm;37751;52.408;12.536;2023-12-20T13:10:26;67.66;60.96;74.47;;
51665;Laerm;37751;52.408;12.536;2023-12-20T13:13:44;67.02;59.67;74.47;;
51665;Laerm;37751;52.408;12.536;2023-12-20T13:19:33;67.22;55.94;77.12;;
51665;Laerm;37751;52.408;12.536;2023-12-20T13:22:46;67.63;56.52;81.76;;
51665;Laerm;37751;52.408;12.536;2023-12-20T13:25:49;65.49;54.45;72.74;;
51665;Laerm;37751;52.408;12.536;2023-12-20T13:29:02;65.28;55.22;71.59;;
51665;Laerm;37751;52.408;12.536;2023-12-20T13:32:14;65.41;54.73;73.08;;
51665;Laerm;37751;52.408;12.536;2023-12-20T13:35:24;64.32;54.94;72.36;;
51665;Laerm;37751;52.408;12.536;2023-12-20T13:38:36;64.82;53.36;74.53;;
51665;Laerm;37751;52.408;12.536;2023-12-20T13:41:38;63.85;54.78;71.82;;
51665;Laerm;37751;52.408;12.536;2023-12-20T13:44:24;64.33;55.07;72.25;;
51665;Laerm;37751;52.408;12.536;2023-12-20T13:47:36;73.15;52.39;93.85;;
51665;Laerm;37751;52.408;12.536;2023-12-20T13:50:50;64.12;55.77;72.77;;
51665;Laerm;37751;52.408;12.536;2023-12-20T13:53:45;63.91;54.87;70.22;;
51665;Laerm;37751;52.408;12.536;2023-12-20T13:56:20;63.77;53.83;71.48;;
51665;Laerm;37751;52.408;12.536;2023-12-20T13:59:14;63.59;53.16;73.52;;
51665;Laerm;37751;52.408;12.536;2023-12-20T14:02:25;65.04;57.30;71.50;;
51665;Laerm;37751;52.408;12.536;2023-12-20T14:05:37;66.11;56.33;91.58;;
51665;Laerm;37751;52.408;12.536;2023-12-20T14:08:21;63.69;54.20;73.05;;
51665;Laerm;37751;52.408;12.536;2023-12-20T14:11:33;64.76;54.90;79.32;;
51665;Laerm;37751;52.408;12.536;2023-12-20T14:14:39;63.39;55.04;70.09;;
51665;Laerm;37751;52.408;12.536;2023-12-20T14:17:52;67.42;55.69;87.07;;
51665;Laerm;37751;52.408;12.536;2023-12-20T14:20:44;63.47;52.93;72.11;;
51665;Laerm;37751;52.408;12.536;2023-12-20T14:23:16;62.56;50.28;69.75;;
51665;Laerm;37751;52.408;12.536;2023-12-20T14:26:13;64.06;51.60;72.88;;
51665;Laerm;37751;52.408;12.536;2023-12-20T14:28:50;62.66;54.46;69.81;;
51665;Laerm;37751;52.408;12.536;2023-12-20T14:31:21;63.76;53.61;71.40;;
51665;Laerm;37751;52.408;12.536;2023-12-20T14:34:09;69.24;52.24;87.81;;
51665;Laerm;37751;52.408;12.536;2023-12-20T14:36:45;63.10;53.78;71.60;;
51665;Laerm;37751;52.408;12.536;2023-12-20T14:39:45;64.42;56.14;74.98;;
51665;Laerm;37751;52.408;12.536;2023-12-20T14:42:53;62.10;51.89;69.44;;
51665;Laerm;37751;52.408;12.536;2023-12-20T14:45:58;63.83;52.16;72.36;;
51665;Laerm;37751;52.408;12.536;2023-12-20T14:48:32;62.34;50.71;69.60;;
51665;Laerm;37751;52.408;12.536;2023-12-20T14:51:25;63.34;52.77;70.71;;
51665;Laerm;37751;52.408;12.536;2023-12-20T14:54:39;61.68;51.24;72.67;;
51665;Laerm;37751;52.408;12.536;2023-12-20T14:57:42;62.86;53.54;69.43;;
51665;Laerm;37751;52.408;12.536;2023-12-20T15:00:38;62.17;53.97;71.11;;
51665;Laerm;37751;52.408;12.536;2023-12-20T15:03:14;62.69;51.28;70.47;;
51665;Laerm;37751;52.408;12.536;2023-12-20T15:06:10;62.15;50.56;69.18;;
51665;Laerm;37751;52.408;12.536;2023-12-20T15:09:03;62.34;51.76;70.39;;
51665;Laerm;37751;52.408;12.536;2023-12-20T15:12:07;63.06;52.18;71.66;;
51665;Laerm;37751;52.408;12.536;2023-12-20T15:15:19;62.12;52.36;76.62;;
51665;Laerm;37751;52.408;12.536;2023-12-20T15:18:35;62.60;52.11;72.69;;
51665;Laerm;37751;52.408;12.536;2023-12-20T15:21:25;61.65;49.97;68.92;;
51665;Laerm;37751;52.408;12.536;2023-12-20T15:24:20;62.74;50.36;71.47;;
51665;Laerm;37751;52.408;12.536;2023-12-20T15:27:09;75.56;54.39;94.51;;
51665;Laerm;37751;52.408;12.536;2023-12-20T15:29:43;62.00;50.30;68.25;;
51665;Laerm;37751;52.408;12.536;2023-12-20T15:32:19;61.59;52.30;69.67;;
51665;Laerm;37751;52.408;12.536;2023-12-20T15:35:12;61.42;47.65;68.03;;
51665;Laerm;37751;52.408;12.536;2023-12-20T15:38:05;62.39;54.60;72.37;;
51665;Laerm;37751;52.408;12.536;2023-12-20T15:41:18;61.93;51.37;70.92;;
51665;Laerm;37751;52.408;12.536;2023-12-20T15:44:24;60.91;48.94;67.91;;
51665;Laerm;37751;52.408;12.536;2023-12-20T15:47:32;61.68;54.24;71.10;;
51665;Laerm;37751;52.408;12.536;2023-12-20T15:50:26;60.73;48.66;68.06;;